Auguette, France

6:25 AM CEST on May 01, 2017 (GMT +0200)
Rue Hoche | | Change Station

Elev 19 ft 43.40 °N, 5.06 °E | Updated 4 minutes ago

Rain
Rain
46.8 °F
Feels Like 46 °F
N
3.1
Wind Variable Wind from North
Gusts 8.7 mph

Today
High -- | Low -- °F
--% Chance of Precip.
Yesterday
High -- | Low -- °F
Precip. -- in
Pressure 29.95 in
Visibility -9999.0 miles
Clouds
Windchill 46 °F
Dew Point 47 °F
Humidity 100%
Rainfall 0.15 in
Snow Depth Not available.
6:32 AM 8:41 PM
Waxing Crescent, 29% visible
METAR LFMI 010400Z AUTO 28008KT CAVOK 07/06 Q1014 BECMG 32015G25KT
Pressure 29.95 in
Visibility -9999.0 miles
Clouds
Windchill 46 °F
Dew Point 47 °F
Humidity 100%
Rainfall 0.15 in
Snow Depth Not available.
6:32 AM 8:41 PM
Waxing Crescent, 29% visible
METAR LFMI 010400Z AUTO 28008KT CAVOK 07/06 Q1014 BECMG 32015G25KT

Get Severe Weather Alerts

Thanks for signing up!

Be on the lookout for a verification email in your inbox.

You'll start receiving the daily forecast at 8 AM.

×

10-Day Weather Forecast

×

Almanac

Astronomy

May. 01, 2017 Rise Set
Actual Time
Civil Twilight
Nautical Twilight
Astronomical Twilight
Moon
Length of Visible Light
Length of Day
Tomorrow will be .
, % of the Moon is Illuminated

Today's Extremes

Country Highs Country Lows

Community

WunderPhotos

WunderBlog® & News

Nearby

Air Quality

  Air Quality AQ Index Pollutant
Not available.

Snow Depth

Station Depth Elevation

Earthquake Activity

City Distance Mag. Time & Date
Minimum magnitude displayed is 2.5.

Coastal Water Temperatures

Place Temperature

Stations

Nearby Weather Stations

Station Location Temp. Windchill Dew Point Humidity Wind Precip. Elev Updated Type